Solebury, Pennsylvania
Current Conditions -  °F | °C
As of 5:54 PM on Monday 24 Nov 2014 (Local Time) from KDYL Reporting Station
Clear Clear  
Wind Chill: 61°   Ceiling: Unl
Heat Index: 61°   Visibility: 10mi
Dew Point: 55°   Wind: 9mph
Humidity: 81%   Direction: 200°SSW
Pressure: 29.66"   Gusts: 18mph
Location:  40.38°N, 75.01°W
Report Text: KDYL 242254Z AUTO 20008G16KT 10SM CLR 16/13 A2966 RMK AO2 SLP041 T01610128
Loading
Personal Weather Stations






























Interactive Weather Map New forecast layout! Learn more

10-Day Weather Forecast

Advertisements
Track Severe Weather on mobile